createdAt,value
2023-04-11T00:00:27.729Z,7.63
2023-04-11T00:05:51.934Z,7.59
2023-04-11T00:10:55.375Z,7.62
2023-04-11T00:15:59.369Z,7.64
2023-04-11T00:21:21.067Z,7.53
2023-04-11T00:26:24.624Z,7.42
2023-04-11T00:31:28.165Z,7.33
2023-04-11T00:36:34.084Z,7.30
2023-04-11T00:41:37.810Z,7.32
2023-04-11T00:46:46.577Z,7.32
2023-04-11T00:51:53.385Z,7.30
2023-04-11T00:56:59.316Z,7.24
2023-04-11T01:02:06.277Z,7.17
2023-04-11T01:07:11.991Z,7.18
2023-04-11T01:12:18.579Z,7.17
2023-04-11T01:17:44.354Z,7.12
2023-04-11T01:23:17.096Z,7.04
2023-04-11T01:28:54.727Z,6.94
2023-04-11T01:34:29.527Z,6.87
2023-04-11T01:40:14.320Z,6.81
2023-04-11T01:45:41.484Z,6.72
2023-04-11T01:50:47.764Z,6.69
2023-04-11T01:55:51.327Z,6.71
2023-04-11T02:00:54.727Z,6.73
2023-04-11T02:05:58.039Z,6.74
2023-04-11T02:11:01.657Z,6.75
2023-04-11T02:16:15.439Z,6.72
2023-04-11T02:21:19.273Z,6.67
2023-04-11T02:26:22.969Z,6.61
2023-04-11T02:31:26.351Z,6.58
2023-04-11T02:36:32.893Z,6.54
2023-04-11T02:41:42.140Z,6.50
2023-04-11T02:46:45.674Z,6.47
2023-04-11T02:51:49.432Z,6.40
2023-04-11T02:56:53.014Z,6.42
2023-04-11T03:02:00.773Z,6.49
2023-04-11T03:07:08.166Z,6.54
2023-04-11T03:12:11.614Z,6.56
2023-04-11T03:17:26.199Z,6.58
2023-04-11T03:22:38.477Z,6.61
2023-04-11T03:27:42.238Z,6.67
2023-04-11T03:32:47.295Z,6.68
2023-04-11T03:38:21.420Z,6.74
2023-04-11T03:43:25.450Z,6.66
2023-04-11T03:48:30.773Z,6.50
2023-04-11T03:53:37.008Z,6.38
2023-04-11T03:58:50.501Z,6.30
2023-04-11T04:03:56.369Z,6.28
2023-04-11T04:09:00.120Z,6.29
2023-04-11T04:14:29.125Z,6.23
2023-04-11T04:19:44.345Z,6.25
2023-04-11T04:24:52.073Z,6.24
2023-04-11T04:30:04.546Z,6.32
2023-04-11T04:35:29.970Z,6.40
2023-04-11T04:40:48.421Z,6.59
2023-04-11T04:46:02.733Z,6.84
2023-04-11T04:51:14.550Z,7.15
2023-04-11T04:56:38.626Z,7.41
2023-04-11T05:01:45.275Z,7.89
2023-04-11T05:06:52.069Z,8.51
2023-04-11T05:11:58.243Z,9.09
2023-04-11T05:17:01.840Z,9.62
2023-04-11T05:22:08.819Z,10.06
2023-04-11T05:27:14.346Z,10.34
2023-04-11T05:32:20.817Z,10.93
2023-04-11T05:37:48.122Z,11.84
2023-04-11T05:42:51.813Z,12.68
2023-04-11T05:47:57.752Z,13.31
2023-04-11T05:53:04.924Z,14.30
2023-04-11T05:58:09.791Z,15.16
2023-04-11T06:03:13.489Z,15.81
2023-04-11T06:08:17.942Z,16.08
2023-04-11T06:13:21.305Z,16.68
2023-04-11T06:18:24.452Z,17.48
2023-04-11T06:23:31.339Z,17.60
2023-04-11T06:28:34.469Z,17.45
2023-04-11T06:33:38.728Z,17.44
2023-04-11T06:38:42.536Z,17.64
2023-04-11T06:43:45.829Z,17.86
2023-04-11T06:48:48.998Z,17.96
2023-04-11T06:53:53.384Z,17.86
2023-04-11T06:58:56.621Z,17.76
2023-04-11T07:04:00.087Z,17.43
2023-04-11T07:09:05.019Z,17.13
2023-04-11T07:14:08.294Z,17.14
2023-04-11T07:19:11.704Z,17.18
2023-04-11T07:24:14.861Z,17.00
2023-04-11T07:29:18.277Z,16.68
2023-04-11T07:34:22.036Z,16.56
2023-04-11T07:39:28.017Z,16.31
2023-04-11T07:44:31.153Z,16.27
2023-04-11T07:49:34.325Z,16.33
2023-04-11T07:54:37.552Z,16.31
2023-04-11T07:59:40.815Z,16.22
2023-04-11T08:04:44.365Z,16.17
2023-04-11T08:09:47.818Z,16.16
2023-04-11T08:14:51.060Z,16.25
2023-04-11T08:19:54.811Z,16.32
2023-04-11T08:24:58.080Z,16.06
2023-04-11T08:30:02.029Z,15.80
2023-04-11T08:35:05.812Z,15.71
2023-04-11T08:40:09.636Z,15.61
2023-04-11T08:45:13.171Z,15.76
2023-04-11T08:50:16.407Z,15.92
2023-04-11T08:55:22.224Z,15.98
2023-04-11T09:00:27.439Z,16.20
2023-04-11T09:05:39.318Z,16.38
2023-04-11T09:10:46.197Z,16.56
2023-04-11T09:16:19.117Z,16.70
2023-04-11T09:21:22.496Z,16.58
2023-04-11T09:26:30.121Z,16.60
2023-04-11T09:31:53.768Z,16.59
2023-04-11T09:36:57.140Z,16.60
2023-04-11T09:42:01.081Z,16.63
2023-04-11T09:47:05.020Z,16.64
2023-04-11T09:52:08.838Z,16.53
2023-04-11T09:57:14.154Z,16.59
2023-04-11T10:02:17.867Z,16.60
2023-04-11T10:07:21.733Z,16.71
2023-04-11T10:12:32.308Z,16.84
2023-04-11T10:17:36.839Z,16.87
2023-04-11T10:22:43.794Z,16.90
2023-04-11T10:27:49.857Z,16.96
2023-04-11T10:33:12.841Z,16.99
2023-04-11T10:38:43.865Z,17.24
2023-04-11T10:43:47.802Z,17.43
2023-04-11T10:49:01.668Z,17.46
2023-04-11T10:54:05.228Z,17.28
2023-04-11T10:59:31.412Z,17.15
2023-04-11T11:04:37.057Z,17.07
2023-04-11T11:09:40.551Z,17.22
2023-04-11T11:14:46.254Z,17.38
2023-04-11T11:19:49.654Z,17.34
2023-04-11T11:24:53.639Z,17.18
2023-04-11T11:29:56.844Z,17.16
2023-04-11T11:35:00.411Z,17.16
2023-04-11T11:40:09.632Z,17.18
2023-04-11T11:45:16.607Z,17.22
2023-04-11T11:50:33.256Z,17.32
2023-04-11T11:55:36.549Z,17.37
2023-04-11T12:00:41.558Z,17.38
2023-04-11T12:05:44.816Z,17.47
2023-04-11T12:10:49.774Z,17.56
2023-04-11T12:15:55.915Z,17.53
2023-04-11T12:20:59.697Z,17.57
2023-04-11T12:26:03.429Z,17.62
2023-04-11T12:31:07.027Z,17.68
2023-04-11T12:36:11.101Z,17.65
2023-04-11T12:41:31.746Z,17.65
2023-04-11T12:46:36.393Z,17.85
2023-04-11T12:51:39.601Z,18.00
2023-04-11T12:56:42.926Z,18.04
2023-04-11T13:01:47.048Z,18.00
2023-04-11T13:06:52.429Z,17.76
2023-04-11T13:11:57.030Z,17.40
2023-04-11T13:17:00.326Z,17.18
2023-04-11T13:22:04.038Z,16.97
2023-04-11T13:27:07.292Z,16.86
2023-04-11T13:32:10.662Z,16.82
2023-04-11T13:37:16.730Z,16.74
2023-04-11T13:42:21.903Z,16.67
2023-04-11T13:47:25.366Z,16.63
2023-04-11T13:52:28.762Z,16.61
2023-04-11T13:57:31.926Z,16.64
2023-04-11T14:02:35.347Z,16.60
2023-04-11T14:07:38.931Z,16.58
2023-04-11T14:12:42.513Z,16.55
2023-04-11T14:17:47.942Z,16.63
2023-04-11T14:22:51.631Z,16.63
2023-04-11T14:27:55.119Z,16.61
2023-04-11T14:32:58.290Z,16.56
2023-04-11T14:38:02.264Z,16.60
2023-04-11T14:43:06.468Z,16.61
2023-04-11T14:48:10.208Z,16.53
2023-04-11T14:53:13.543Z,16.49
2023-04-11T14:58:17.204Z,16.55
2023-04-11T15:03:20.816Z,16.54
2023-04-11T15:08:24.200Z,16.54
2023-04-11T15:13:27.361Z,16.52
2023-04-11T15:18:32.941Z,16.51
2023-04-11T15:23:36.722Z,16.58
2023-04-11T15:28:40.181Z,16.64
2023-04-11T15:33:43.497Z,16.66
2023-04-11T15:38:46.812Z,16.69
2023-04-11T15:43:50.181Z,16.73
2023-04-11T15:48:53.636Z,16.73
2023-04-11T15:53:56.937Z,16.71
2023-04-11T15:59:00.414Z,16.64
2023-04-11T16:04:04.269Z,16.55
2023-04-11T16:09:09.108Z,16.48
2023-04-11T16:14:12.507Z,16.42
2023-04-11T16:19:15.825Z,16.34
2023-04-11T16:24:19.283Z,16.26
2023-04-11T16:29:23.531Z,16.11
2023-04-11T16:34:27.392Z,15.98
2023-04-11T16:39:31.094Z,15.87
2023-04-11T16:44:34.369Z,15.74
2023-04-11T16:49:37.905Z,15.63
2023-04-11T16:54:41.123Z,15.50
2023-04-11T16:59:44.794Z,15.39
2023-04-11T17:05:08.946Z,15.30
2023-04-11T17:10:12.670Z,15.21
2023-04-11T17:15:19.242Z,15.12
2023-04-11T17:20:23.587Z,14.99
2023-04-11T17:25:30.240Z,14.86
2023-04-11T17:30:33.689Z,14.74
2023-04-11T17:35:37.013Z,14.62
2023-04-11T17:40:45.516Z,14.51
2023-04-11T17:45:50.119Z,14.40
2023-04-11T17:50:55.422Z,14.29
2023-04-11T17:56:04.668Z,14.18
2023-04-11T18:01:30.167Z,14.06
2023-04-11T18:06:34.403Z,13.96
2023-04-11T18:11:42.003Z,13.87
2023-04-11T18:16:51.173Z,13.79
2023-04-11T18:21:55.185Z,13.72
2023-04-11T18:26:58.628Z,13.64
2023-04-11T18:32:03.086Z,13.58
2023-04-11T18:37:10.314Z,13.53
2023-04-11T18:42:24.132Z,13.46
2023-04-11T18:47:27.683Z,13.37
2023-04-11T18:52:32.369Z,13.25
2023-04-11T18:57:39.279Z,13.18
2023-04-11T19:02:47.130Z,13.09
2023-04-11T19:07:53.502Z,13.01
2023-04-11T19:12:57.172Z,12.94
2023-04-11T19:18:06.669Z,12.87
2023-04-11T19:23:13.610Z,12.76
2023-04-11T19:28:22.956Z,12.64
2023-04-11T19:33:39.108Z,12.51
2023-04-11T19:38:42.912Z,12.40
2023-04-11T19:43:57.199Z,12.32
2023-04-11T19:49:01.688Z,12.16
2023-04-11T19:54:05.199Z,11.98
2023-04-11T19:59:08.625Z,11.78
2023-04-11T20:04:13.139Z,11.59
2023-04-11T20:09:17.014Z,11.40
2023-04-11T20:14:20.784Z,11.29
2023-04-11T20:19:28.546Z,11.25
2023-04-11T20:24:46.785Z,11.28
2023-04-11T20:29:50.345Z,11.36
2023-04-11T20:34:56.485Z,11.40
2023-04-11T20:40:10.936Z,11.41
2023-04-11T20:45:22.048Z,11.41
2023-04-11T20:50:25.924Z,11.42
2023-04-11T20:55:44.460Z,11.39
2023-04-11T21:01:08.180Z,11.39
2023-04-11T21:06:11.852Z,11.40
2023-04-11T21:11:18.204Z,11.43
2023-04-11T21:16:22.016Z,11.41
2023-04-11T21:21:25.842Z,11.26
2023-04-11T21:26:29.451Z,11.10
2023-04-11T21:31:33.273Z,10.99
2023-04-11T21:36:51.131Z,10.88
2023-04-11T21:42:00.289Z,10.84
2023-04-11T21:47:06.762Z,10.83
2023-04-11T21:52:15.813Z,10.77
2023-04-11T21:57:19.210Z,10.61
2023-04-11T22:02:22.923Z,10.51
2023-04-11T22:08:20.579Z,10.45
2023-04-11T22:13:46.886Z,10.32
2023-04-11T22:18:54.606Z,10.25
2023-04-11T22:23:58.296Z,10.18
2023-04-11T22:29:06.045Z,10.16
2023-04-11T22:34:09.883Z,10.13
2023-04-11T22:39:13.420Z,10.16
2023-04-11T22:44:19.712Z,10.08
2023-04-11T22:49:27.085Z,9.99
2023-04-11T22:54:30.522Z,9.98
2023-04-11T22:59:34.048Z,10.01
2023-04-11T23:04:40.017Z,10.01
2023-04-11T23:09:44.965Z,10.01
2023-04-11T23:14:53.336Z,10.00
2023-04-11T23:19:59.669Z,10.01
2023-04-11T23:25:12.835Z,10.02
2023-04-11T23:30:28.667Z,10.09
2023-04-11T23:35:34.292Z,10.16
2023-04-11T23:40:43.369Z,10.23
2023-04-11T23:45:49.924Z,10.26
2023-04-11T23:50:53.340Z,10.23
2023-04-11T23:55:56.667Z,10.21
